< < Back
Terminal Aerodrome Forecast


Current Version              Previous Versions:   1  2  3  4  5  6  7  8  9  

Terminal Aerodrome Forecast

747
FTAK31 PAJN 090700 AAA
TAFAHN
TAF AMD
PAHN 090700Z 0907/1006 15007G15KT 6SM -RA BR BKN010 OVC030
     FM090800 08010G18KT 6SM -RA BR SCT002 BKN015 OVC030
     FM091700 30010KT P6SM VCSH SCT010 BKN025 OVC040
     FM100000 30012KT P6SM SCT025 OVC045
      AMD LTD TO CLD VIS AND WIND=

Latest METAR

405
SAUS70 KWBC 091000 RRA
MTRAHN
METAR KAHN 090951Z AUTO 28009KT 10SM OVC040 02/M04 A2977 RMK AO2 SLP085
T00171039


USA.gov is the U.S. government's official web portal to all federal, state and local government web resources and services.